sensor_id;sensor_type;location;lat;lon;timestamp;P1;durP1;ratioP1;P2;durP2;ratioP2
47545;SDS011;50104;52.002;4.688;2022-11-23T00:02:16;18.20;;;9.98;;
47545;SDS011;50104;52.002;4.688;2022-11-23T00:07:20;17.60;;;10.30;;
47545;SDS011;50104;52.002;4.688;2022-11-23T00:12:20;18.52;;;10.07;;
47545;SDS011;50104;52.002;4.688;2022-11-23T00:17:21;18.83;;;10.20;;
47545;SDS011;50104;52.002;4.688;2022-11-23T00:22:22;15.65;;;9.68;;
47545;SDS011;50104;52.002;4.688;2022-11-23T00:27:23;20.25;;;10.40;;
47545;SDS011;50104;52.002;4.688;2022-11-23T00:32:24;19.98;;;11.18;;
47545;SDS011;50104;52.002;4.688;2022-11-23T00:37:28;16.30;;;10.50;;
47545;SDS011;50104;52.002;4.688;2022-11-23T00:42:29;22.60;;;11.02;;
47545;SDS011;50104;52.002;4.688;2022-11-23T00:47:30;20.52;;;11.80;;
47545;SDS011;50104;52.002;4.688;2022-11-23T00:52:30;21.08;;;11.40;;
47545;SDS011;50104;52.002;4.688;2022-11-23T00:57:32;23.52;;;11.32;;
47545;SDS011;50104;52.002;4.688;2022-11-23T01:02:34;18.50;;;10.98;;
47545;SDS011;50104;52.002;4.688;2022-11-23T01:07:35;16.58;;;11.43;;
47545;SDS011;50104;52.002;4.688;2022-11-23T01:12:35;20.35;;;11.30;;
47545;SDS011;50104;52.002;4.688;2022-11-23T01:17:36;21.60;;;11.75;;
47545;SDS011;50104;52.002;4.688;2022-11-23T01:22:37;25.42;;;12.68;;
47545;SDS011;50104;52.002;4.688;2022-11-23T01:27:38;26.42;;;10.98;;
47545;SDS011;50104;52.002;4.688;2022-11-23T01:32:40;28.60;;;9.95;;
47545;SDS011;50104;52.002;4.688;2022-11-23T01:37:40;18.75;;;9.52;;
47545;SDS011;50104;52.002;4.688;2022-11-23T01:42:42;18.40;;;8.82;;
47545;SDS011;50104;52.002;4.688;2022-11-23T01:47:54;16.15;;;7.97;;
47545;SDS011;50104;52.002;4.688;2022-11-23T01:52:55;16.02;;;7.45;;
47545;SDS011;50104;52.002;4.688;2022-11-23T01:57:57;15.63;;;7.13;;
47545;SDS011;50104;52.002;4.688;2022-11-23T02:02:58;12.95;;;6.55;;
47545;SDS011;50104;52.002;4.688;2022-11-23T02:08:00;15.23;;;6.40;;
47545;SDS011;50104;52.002;4.688;2022-11-23T02:13:05;11.23;;;6.25;;
47545;SDS011;50104;52.002;4.688;2022-11-23T02:18:29;12.98;;;6.50;;
47545;SDS011;50104;52.002;4.688;2022-11-23T02:34:26;11.73;;;5.97;;
47545;SDS011;50104;52.002;4.688;2022-11-23T02:49:52;11.68;;;6.40;;
47545;SDS011;50104;52.002;4.688;2022-11-23T02:54:53;16.05;;;7.38;;
47545;SDS011;50104;52.002;4.688;2022-11-23T02:59:54;18.15;;;9.30;;
47545;SDS011;50104;52.002;4.688;2022-11-23T03:04:55;17.00;;;8.68;;
47545;SDS011;50104;52.002;4.688;2022-11-23T03:09:56;17.25;;;10.57;;
47545;SDS011;50104;52.002;4.688;2022-11-23T03:14:57;15.70;;;9.40;;
47545;SDS011;50104;52.002;4.688;2022-11-23T03:19:57;17.75;;;10.25;;
47545;SDS011;50104;52.002;4.688;2022-11-23T03:25:00;17.50;;;10.52;;
47545;SDS011;50104;52.002;4.688;2022-11-23T03:30:00;17.05;;;9.93;;
47545;SDS011;50104;52.002;4.688;2022-11-23T03:35:02;17.35;;;10.73;;
47545;SDS011;50104;52.002;4.688;2022-11-23T03:40:04;19.83;;;10.55;;
47545;SDS011;50104;52.002;4.688;2022-11-23T03:45:06;19.10;;;10.75;;
47545;SDS011;50104;52.002;4.688;2022-11-23T03:50:08;21.98;;;10.90;;
47545;SDS011;50104;52.002;4.688;2022-11-23T03:55:09;16.77;;;11.13;;
47545;SDS011;50104;52.002;4.688;2022-11-23T04:00:10;14.85;;;9.52;;
47545;SDS011;50104;52.002;4.688;2022-11-23T04:05:11;19.20;;;10.48;;
47545;SDS011;50104;52.002;4.688;2022-11-23T04:10:14;14.90;;;9.80;;
47545;SDS011;50104;52.002;4.688;2022-11-23T04:15:16;15.77;;;9.82;;
47545;SDS011;50104;52.002;4.688;2022-11-23T04:20:17;23.02;;;10.88;;
47545;SDS011;50104;52.002;4.688;2022-11-23T04:25:18;18.35;;;10.27;;
47545;SDS011;50104;52.002;4.688;2022-11-23T04:30:19;15.70;;;9.35;;
47545;SDS011;50104;52.002;4.688;2022-11-23T04:35:19;18.55;;;10.05;;
47545;SDS011;50104;52.002;4.688;2022-11-23T04:40:21;18.05;;;9.55;;
47545;SDS011;50104;52.002;4.688;2022-11-23T04:45:22;14.00;;;9.60;;
47545;SDS011;50104;52.002;4.688;2022-11-23T04:50:23;16.63;;;9.02;;
47545;SDS011;50104;52.002;4.688;2022-11-23T04:55:24;15.00;;;8.48;;
47545;SDS011;50104;52.002;4.688;2022-11-23T05:00:25;15.90;;;8.05;;
47545;SDS011;50104;52.002;4.688;2022-11-23T05:05:26;12.38;;;7.22;;
47545;SDS011;50104;52.002;4.688;2022-11-23T05:10:27;12.63;;;6.85;;
47545;SDS011;50104;52.002;4.688;2022-11-23T05:15:28;16.60;;;8.25;;
47545;SDS011;50104;52.002;4.688;2022-11-23T05:20:29;15.90;;;9.55;;
47545;SDS011;50104;52.002;4.688;2022-11-23T05:25:29;16.27;;;8.57;;
47545;SDS011;50104;52.002;4.688;2022-11-23T05:30:30;17.80;;;8.43;;
47545;SDS011;50104;52.002;4.688;2022-11-23T05:35:31;13.05;;;7.65;;
47545;SDS011;50104;52.002;4.688;2022-11-23T05:40:32;12.43;;;7.07;;
47545;SDS011;50104;52.002;4.688;2022-11-23T05:45:33;6.43;;;5.57;;
47545;SDS011;50104;52.002;4.688;2022-11-23T05:50:33;15.90;;;6.15;;
47545;SDS011;50104;52.002;4.688;2022-11-23T05:55:34;9.52;;;3.92;;
47545;SDS011;50104;52.002;4.688;2022-11-23T06:00:36;7.95;;;2.85;;
47545;SDS011;50104;52.002;4.688;2022-11-23T06:05:37;4.85;;;2.20;;
47545;SDS011;50104;52.002;4.688;2022-11-23T06:10:38;3.95;;;2.30;;
47545;SDS011;50104;52.002;4.688;2022-11-23T06:15:39;6.47;;;1.92;;
47545;SDS011;50104;52.002;4.688;2022-11-23T06:20:40;5.13;;;2.53;;
47545;SDS011;50104;52.002;4.688;2022-11-23T06:25:40;8.18;;;2.47;;
47545;SDS011;50104;52.002;4.688;2022-11-23T06:30:41;7.43;;;2.63;;
47545;SDS011;50104;52.002;4.688;2022-11-23T06:35:50;9.48;;;2.40;;
47545;SDS011;50104;52.002;4.688;2022-11-23T06:40:57;7.60;;;2.28;;
47545;SDS011;50104;52.002;4.688;2022-11-23T06:46:01;9.15;;;2.70;;
47545;SDS011;50104;52.002;4.688;2022-11-23T06:51:04;12.00;;;4.03;;
47545;SDS011;50104;52.002;4.688;2022-11-23T06:56:05;9.40;;;3.08;;
47545;SDS011;50104;52.002;4.688;2022-11-23T07:01:07;5.13;;;2.67;;
47545;SDS011;50104;52.002;4.688;2022-11-23T07:06:09;9.80;;;3.30;;
47545;SDS011;50104;52.002;4.688;2022-11-23T07:11:10;6.75;;;2.72;;
47545;SDS011;50104;52.002;4.688;2022-11-23T07:16:11;8.93;;;3.65;;
47545;SDS011;50104;52.002;4.688;2022-11-23T07:21:12;7.53;;;3.60;;
47545;SDS011;50104;52.002;4.688;2022-11-23T07:26:13;9.55;;;3.40;;
47545;SDS011;50104;52.002;4.688;2022-11-23T07:31:14;7.93;;;2.67;;
47545;SDS011;50104;52.002;4.688;2022-11-23T07:36:15;12.38;;;3.20;;
47545;SDS011;50104;52.002;4.688;2022-11-23T07:41:16;12.63;;;3.10;;
47545;SDS011;50104;52.002;4.688;2022-11-23T07:46:16;12.85;;;2.97;;
47545;SDS011;50104;52.002;4.688;2022-11-23T07:51:17;10.98;;;2.55;;
47545;SDS011;50104;52.002;4.688;2022-11-23T07:56:19;8.77;;;2.40;;
47545;SDS011;50104;52.002;4.688;2022-11-23T08:01:20;10.95;;;2.55;;
47545;SDS011;50104;52.002;4.688;2022-11-23T08:06:20;10.77;;;2.47;;
47545;SDS011;50104;52.002;4.688;2022-11-23T08:11:21;9.65;;;2.42;;
47545;SDS011;50104;52.002;4.688;2022-11-23T08:16:22;10.40;;;2.25;;
47545;SDS011;50104;52.002;4.688;2022-11-23T08:21:23;14.13;;;2.70;;
47545;SDS011;50104;52.002;4.688;2022-11-23T08:26:24;9.65;;;2.15;;
47545;SDS011;50104;52.002;4.688;2022-11-23T08:31:26;9.73;;;2.75;;
47545;SDS011;50104;52.002;4.688;2022-11-23T08:36:27;12.95;;;2.88;;
47545;SDS011;50104;52.002;4.688;2022-11-23T08:41:27;9.45;;;2.97;;
47545;SDS011;50104;52.002;4.688;2022-11-23T08:46:28;8.95;;;2.50;;
47545;SDS011;50104;52.002;4.688;2022-11-23T08:51:30;9.48;;;2.72;;
47545;SDS011;50104;52.002;4.688;2022-11-23T08:56:31;13.25;;;2.50;;
47545;SDS011;50104;52.002;4.688;2022-11-23T09:01:32;5.82;;;1.77;;
47545;SDS011;50104;52.002;4.688;2022-11-23T09:06:33;11.48;;;3.08;;
47545;SDS011;50104;52.002;4.688;2022-11-23T09:11:35;11.25;;;2.72;;
47545;SDS011;50104;52.002;4.688;2022-11-23T09:16:36;9.02;;;2.45;;
47545;SDS011;50104;52.002;4.688;2022-11-23T09:21:37;9.77;;;2.70;;
47545;SDS011;50104;52.002;4.688;2022-11-23T09:26:39;10.23;;;2.53;;
47545;SDS011;50104;52.002;4.688;2022-11-23T09:31:40;15.68;;;2.80;;
47545;SDS011;50104;52.002;4.688;2022-11-23T09:36:41;9.73;;;1.85;;
47545;SDS011;50104;52.002;4.688;2022-11-23T09:52:14;14.07;;;2.97;;
47545;SDS011;50104;52.002;4.688;2022-11-23T09:57:20;9.40;;;1.80;;
47545;SDS011;50104;52.002;4.688;2022-11-23T10:02:27;9.43;;;2.90;;
47545;SDS011;50104;52.002;4.688;2022-11-23T10:07:32;14.30;;;2.72;;
47545;SDS011;50104;52.002;4.688;2022-11-23T10:24:19;9.75;;;2.70;;
47545;SDS011;50104;52.002;4.688;2022-11-23T10:29:29;9.38;;;3.08;;
47545;SDS011;50104;52.002;4.688;2022-11-23T10:34:50;13.60;;;3.15;;
47545;SDS011;50104;52.002;4.688;2022-11-23T10:40:21;9.55;;;3.15;;
47545;SDS011;50104;52.002;4.688;2022-11-23T10:45:26;7.63;;;2.53;;
47545;SDS011;50104;52.002;4.688;2022-11-23T10:50:32;11.65;;;3.10;;
47545;SDS011;50104;52.002;4.688;2022-11-23T10:55:53;7.25;;;3.22;;
47545;SDS011;50104;52.002;4.688;2022-11-23T11:00:58;10.17;;;3.67;;
47545;SDS011;50104;52.002;4.688;2022-11-23T11:06:01;7.05;;;2.47;;
47545;SDS011;50104;52.002;4.688;2022-11-23T11:16:17;8.07;;;3.03;;
47545;SDS011;50104;52.002;4.688;2022-11-23T11:21:32;7.50;;;2.47;;
47545;SDS011;50104;52.002;4.688;2022-11-23T11:26:34;8.75;;;2.83;;
47545;SDS011;50104;52.002;4.688;2022-11-23T11:31:45;9.07;;;2.33;;
47545;SDS011;50104;52.002;4.688;2022-11-23T11:37:03;5.85;;;2.33;;
47545;SDS011;50104;52.002;4.688;2022-11-23T11:42:20;7.10;;;2.42;;
47545;SDS011;50104;52.002;4.688;2022-11-23T11:47:45;10.65;;;2.28;;
47545;SDS011;50104;52.002;4.688;2022-11-23T11:53:01;10.32;;;3.20;;
47545;SDS011;50104;52.002;4.688;2022-11-23T11:58:09;3.47;;;1.90;;
47545;SDS011;50104;52.002;4.688;2022-11-23T12:03:13;9.23;;;2.25;;
47545;SDS011;50104;52.002;4.688;2022-11-23T12:14:02;6.43;;;2.03;;
47545;SDS011;50104;52.002;4.688;2022-11-23T12:19:20;6.63;;;1.92;;
47545;SDS011;50104;52.002;4.688;2022-11-23T12:24:48;4.68;;;2.00;;
47545;SDS011;50104;52.002;4.688;2022-11-23T12:40:59;6.75;;;1.58;;
47545;SDS011;50104;52.002;4.688;2022-11-23T12:51:49;5.30;;;1.65;;
47545;SDS011;50104;52.002;4.688;2022-11-23T13:24:28;4.45;;;1.60;;
47545;SDS011;50104;52.002;4.688;2022-11-23T13:34:48;6.93;;;1.60;;
47545;SDS011;50104;52.002;4.688;2022-11-23T13:50:36;13.32;;;1.67;;
47545;SDS011;50104;52.002;4.688;2022-11-23T13:56:14;8.13;;;1.40;;
47545;SDS011;50104;52.002;4.688;2022-11-23T14:12:41;6.10;;;2.05;;
47545;SDS011;50104;52.002;4.688;2022-11-23T14:23:35;2.33;;;1.30;;
47545;SDS011;50104;52.002;4.688;2022-11-23T14:39:39;4.82;;;1.52;;
47545;SDS011;50104;52.002;4.688;2022-11-23T14:45:11;6.70;;;1.38;;
47545;SDS011;50104;52.002;4.688;2022-11-23T14:50:27;3.58;;;1.80;;
47545;SDS011;50104;52.002;4.688;2022-11-23T14:55:29;6.88;;;1.67;;
47545;SDS011;50104;52.002;4.688;2022-11-23T15:00:34;7.07;;;1.85;;
47545;SDS011;50104;52.002;4.688;2022-11-23T15:05:39;4.22;;;1.45;;
47545;SDS011;50104;52.002;4.688;2022-11-23T15:10:51;4.55;;;1.40;;
47545;SDS011;50104;52.002;4.688;2022-11-23T15:16:12;3.85;;;1.50;;
47545;SDS011;50104;52.002;4.688;2022-11-23T15:21:16;5.97;;;1.98;;
47545;SDS011;50104;52.002;4.688;2022-11-23T15:26:30;1.83;;;1.73;;
47545;SDS011;50104;52.002;4.688;2022-11-23T15:31:34;4.45;;;1.50;;
47545;SDS011;50104;52.002;4.688;2022-11-23T15:36:36;5.78;;;1.83;;
47545;SDS011;50104;52.002;4.688;2022-11-23T15:41:38;2.42;;;1.88;;
47545;SDS011;50104;52.002;4.688;2022-11-23T15:46:39;4.85;;;2.40;;
47545;SDS011;50104;52.002;4.688;2022-11-23T15:51:42;6.47;;;2.50;;
47545;SDS011;50104;52.002;4.688;2022-11-23T15:56:45;4.72;;;2.75;;
47545;SDS011;50104;52.002;4.688;2022-11-23T16:01:48;5.07;;;3.58;;
47545;SDS011;50104;52.002;4.688;2022-11-23T16:06:49;4.88;;;3.45;;
47545;SDS011;50104;52.002;4.688;2022-11-23T16:11:50;5.68;;;3.25;;
47545;SDS011;50104;52.002;4.688;2022-11-23T16:17:04;6.35;;;3.63;;
47545;SDS011;50104;52.002;4.688;2022-11-23T16:22:26;5.57;;;3.88;;
47545;SDS011;50104;52.002;4.688;2022-11-23T16:27:35;4.13;;;3.83;;
47545;SDS011;50104;52.002;4.688;2022-11-23T16:32:36;6.00;;;4.00;;
47545;SDS011;50104;52.002;4.688;2022-11-23T16:37:37;5.93;;;4.00;;
47545;SDS011;50104;52.002;4.688;2022-11-23T16:42:38;4.95;;;3.70;;
47545;SDS011;50104;52.002;4.688;2022-11-23T16:47:58;5.43;;;3.53;;
47545;SDS011;50104;52.002;4.688;2022-11-23T16:53:08;6.00;;;3.97;;
47545;SDS011;50104;52.002;4.688;2022-11-23T16:58:13;9.32;;;4.07;;
47545;SDS011;50104;52.002;4.688;2022-11-23T17:03:16;6.07;;;4.35;;
47545;SDS011;50104;52.002;4.688;2022-11-23T17:08:19;4.60;;;4.15;;
47545;SDS011;50104;52.002;4.688;2022-11-23T17:13:21;5.55;;;3.83;;
47545;SDS011;50104;52.002;4.688;2022-11-23T17:18:26;3.78;;;3.47;;
47545;SDS011;50104;52.002;4.688;2022-11-23T17:23:27;4.43;;;3.58;;
47545;SDS011;50104;52.002;4.688;2022-11-23T17:28:27;5.70;;;3.35;;
47545;SDS011;50104;52.002;4.688;2022-11-23T17:33:28;6.07;;;3.92;;
47545;SDS011;50104;52.002;4.688;2022-11-23T17:38:30;8.35;;;4.07;;
47545;SDS011;50104;52.002;4.688;2022-11-23T17:43:32;6.30;;;4.28;;
47545;SDS011;50104;52.002;4.688;2022-11-23T17:48:33;4.95;;;3.88;;
47545;SDS011;50104;52.002;4.688;2022-11-23T17:53:34;7.18;;;3.78;;
47545;SDS011;50104;52.002;4.688;2022-11-23T17:58:35;7.15;;;3.50;;
47545;SDS011;50104;52.002;4.688;2022-11-23T18:03:35;8.00;;;4.15;;
47545;SDS011;50104;52.002;4.688;2022-11-23T18:08:36;8.35;;;3.97;;
47545;SDS011;50104;52.002;4.688;2022-11-23T18:13:37;5.05;;;3.55;;
47545;SDS011;50104;52.002;4.688;2022-11-23T18:18:39;7.72;;;4.40;;
47545;SDS011;50104;52.002;4.688;2022-11-23T18:23:40;7.25;;;4.60;;
47545;SDS011;50104;52.002;4.688;2022-11-23T18:28:41;8.20;;;4.40;;
47545;SDS011;50104;52.002;4.688;2022-11-23T18:33:43;9.25;;;4.18;;
47545;SDS011;50104;52.002;4.688;2022-11-23T18:38:44;11.98;;;4.47;;
47545;SDS011;50104;52.002;4.688;2022-11-23T18:43:45;8.30;;;4.55;;
47545;SDS011;50104;52.002;4.688;2022-11-23T18:48:47;8.15;;;4.28;;
47545;SDS011;50104;52.002;4.688;2022-11-23T18:53:49;6.80;;;3.85;;
47545;SDS011;50104;52.002;4.688;2022-11-23T18:58:52;9.98;;;4.53;;
47545;SDS011;50104;52.002;4.688;2022-11-23T19:03:52;8.45;;;3.58;;
47545;SDS011;50104;52.002;4.688;2022-11-23T19:08:55;5.82;;;4.38;;
47545;SDS011;50104;52.002;4.688;2022-11-23T19:14:00;11.52;;;5.38;;
47545;SDS011;50104;52.002;4.688;2022-11-23T19:19:03;13.00;;;4.45;;
47545;SDS011;50104;52.002;4.688;2022-11-23T19:24:07;13.30;;;4.53;;
47545;SDS011;50104;52.002;4.688;2022-11-23T19:29:08;10.38;;;4.32;;
47545;SDS011;50104;52.002;4.688;2022-11-23T19:34:09;10.05;;;4.43;;
47545;SDS011;50104;52.002;4.688;2022-11-23T19:39:10;9.27;;;5.00;;
47545;SDS011;50104;52.002;4.688;2022-11-23T19:44:11;15.82;;;4.97;;
47545;SDS011;50104;52.002;4.688;2022-11-23T19:49:12;12.40;;;5.18;;
47545;SDS011;50104;52.002;4.688;2022-11-23T19:54:12;9.80;;;4.57;;
47545;SDS011;50104;52.002;4.688;2022-11-23T19:59:13;16.15;;;5.53;;
47545;SDS011;50104;52.002;4.688;2022-11-23T20:04:14;10.50;;;3.78;;
47545;SDS011;50104;52.002;4.688;2022-11-23T20:09:15;9.52;;;3.60;;
47545;SDS011;50104;52.002;4.688;2022-11-23T20:14:18;10.18;;;4.53;;
47545;SDS011;50104;52.002;4.688;2022-11-23T20:19:19;8.55;;;3.17;;
47545;SDS011;50104;52.002;4.688;2022-11-23T20:24:20;14.23;;;4.78;;
47545;SDS011;50104;52.002;4.688;2022-11-23T20:29:22;10.85;;;3.63;;
47545;SDS011;50104;52.002;4.688;2022-11-23T20:34:24;12.10;;;3.45;;
47545;SDS011;50104;52.002;4.688;2022-11-23T20:39:25;11.88;;;3.15;;
47545;SDS011;50104;52.002;4.688;2022-11-23T20:44:26;11.55;;;3.42;;
47545;SDS011;50104;52.002;4.688;2022-11-23T20:49:27;12.55;;;3.53;;
47545;SDS011;50104;52.002;4.688;2022-11-23T20:54:29;16.02;;;3.90;;
47545;SDS011;50104;52.002;4.688;2022-11-23T20:59:30;12.00;;;3.83;;
47545;SDS011;50104;52.002;4.688;2022-11-23T21:04:31;17.85;;;4.38;;
47545;SDS011;50104;52.002;4.688;2022-11-23T21:09:32;14.93;;;4.30;;
47545;SDS011;50104;52.002;4.688;2022-11-23T21:14:33;14.32;;;4.45;;
47545;SDS011;50104;52.002;4.688;2022-11-23T21:19:38;17.13;;;4.55;;
47545;SDS011;50104;52.002;4.688;2022-11-23T21:24:40;12.27;;;4.97;;
47545;SDS011;50104;52.002;4.688;2022-11-23T21:29:41;18.45;;;5.43;;
47545;SDS011;50104;52.002;4.688;2022-11-23T21:34:45;15.35;;;5.78;;
47545;SDS011;50104;52.002;4.688;2022-11-23T21:39:45;27.13;;;4.75;;
47545;SDS011;50104;52.002;4.688;2022-11-23T21:44:46;15.88;;;4.50;;
47545;SDS011;50104;52.002;4.688;2022-11-23T21:49:47;17.52;;;3.67;;
47545;SDS011;50104;52.002;4.688;2022-11-23T21:54:48;17.25;;;4.32;;
47545;SDS011;50104;52.002;4.688;2022-11-23T21:59:49;20.33;;;4.18;;
47545;SDS011;50104;52.002;4.688;2022-11-23T22:04:50;14.88;;;3.50;;
47545;SDS011;50104;52.002;4.688;2022-11-23T22:09:50;23.35;;;4.60;;
47545;SDS011;50104;52.002;4.688;2022-11-23T22:14:51;19.67;;;3.83;;
47545;SDS011;50104;52.002;4.688;2022-11-23T22:19:52;19.30;;;4.25;;
47545;SDS011;50104;52.002;4.688;2022-11-23T22:24:53;19.00;;;3.65;;
47545;SDS011;50104;52.002;4.688;2022-11-23T22:29:54;23.63;;;3.60;;
47545;SDS011;50104;52.002;4.688;2022-11-23T22:34:55;12.55;;;2.90;;
47545;SDS011;50104;52.002;4.688;2022-11-23T22:39:56;22.08;;;4.28;;
47545;SDS011;50104;52.002;4.688;2022-11-23T22:44:57;22.20;;;4.00;;
47545;SDS011;50104;52.002;4.688;2022-11-23T22:49:58;20.63;;;3.40;;
47545;SDS011;50104;52.002;4.688;2022-11-23T22:54:59;18.35;;;4.10;;
47545;SDS011;50104;52.002;4.688;2022-11-23T23:00:00;22.00;;;4.25;;
47545;SDS011;50104;52.002;4.688;2022-11-23T23:05:01;12.90;;;3.83;;
47545;SDS011;50104;52.002;4.688;2022-11-23T23:10:02;15.82;;;4.53;;
47545;SDS011;50104;52.002;4.688;2022-11-23T23:15:04;20.27;;;3.40;;
47545;SDS011;50104;52.002;4.688;2022-11-23T23:20:07;17.38;;;4.78;;
47545;SDS011;50104;52.002;4.688;2022-11-23T23:25:08;14.52;;;2.65;;
47545;SDS011;50104;52.002;4.688;2022-11-23T23:30:09;9.07;;;2.50;;
47545;SDS011;50104;52.002;4.688;2022-11-23T23:35:10;12.05;;;2.30;;
47545;SDS011;50104;52.002;4.688;2022-11-23T23:40:11;9.30;;;2.00;;
47545;SDS011;50104;52.002;4.688;2022-11-23T23:45:12;11.93;;;2.83;;
47545;SDS011;50104;52.002;4.688;2022-11-23T23:50:13;10.52;;;2.30;;
47545;SDS011;50104;52.002;4.688;2022-11-23T23:55:14;8.00;;;2.58;;
